CheckWX is a tool to help pilots better visualize weather data.  It is not intended as a substitute for an official pre-flight weather briefing.

22:59:18 UTC

GMMX METAR
Menara Airport
Marrakech, Morocco
Current

29 mins ago

GMMX 192230Z 25006KT CAVOK 24/16 Q1014 NOSIG
Observed
Jul-19 @ 22:30 UTC
Wind
  • 250° at 6 KTS
Visibility
10,000+ meters
Flight Rules
VFR
Cloud Levels
  • Clear skies
Temperature
24°C / 75°F
Dewpoint
16°C / 61°F
Humidity
61%
Altimeter
29.94" Hg
Pressure
1013.92 hPa
Previous

59 mins ago

GMMX 192200Z 28007KT CAVOK 25/16 Q1014 NOSIG
Observed
Jul-19 @ 22:00 UTC
Wind
  • 280° at 7 KTS
Visibility
10,000+ meters
Flight Rules
VFR
Cloud Levels
  • Clear skies
Temperature
25°C / 77°F
Dewpoint
16°C / 61°F
Humidity
57%
Altimeter
29.94" Hg
Pressure
1013.92 hPa
Previous

1 hour ago

GMMX 192130Z 27008KT CAVOK 26/16 Q1014 NOSIG
Observed
Jul-19 @ 21:30 UTC
Wind
  • 270° at 8 KTS
Visibility
10,000+ meters
Flight Rules
VFR
Cloud Levels
  • Clear skies
Temperature
26°C / 79°F
Dewpoint
16°C / 61°F
Humidity
54%
Altimeter
29.94" Hg
Pressure
1013.92 hPa